sensor_id;sensor_type;location;lat;lon;timestamp;P1;durP1;ratioP1;P2;durP2;ratioP2
23702;SDS011;12030;50.376;8.762;2023-03-01T00:01:20;9.73;;;7.30;;
23702;SDS011;12030;50.376;8.762;2023-03-01T00:03:48;11.60;;;8.07;;
23702;SDS011;12030;50.376;8.762;2023-03-01T00:06:14;10.00;;;7.20;;
23702;SDS011;12030;50.376;8.762;2023-03-01T00:08:40;10.30;;;7.23;;
23702;SDS011;12030;50.376;8.762;2023-03-01T00:11:10;10.17;;;7.77;;
23702;SDS011;12030;50.376;8.762;2023-03-01T00:13:42;9.30;;;7.20;;
23702;SDS011;12030;50.376;8.762;2023-03-01T00:16:09;10.83;;;8.47;;
23702;SDS011;12030;50.376;8.762;2023-03-01T00:18:37;10.67;;;7.67;;
23702;SDS011;12030;50.376;8.762;2023-03-01T00:21:04;9.87;;;7.07;;
23702;SDS011;12030;50.376;8.762;2023-03-01T00:23:30;11.67;;;8.10;;
23702;SDS011;12030;50.376;8.762;2023-03-01T00:25:56;11.77;;;7.83;;
23702;SDS011;12030;50.376;8.762;2023-03-01T00:28:21;9.20;;;7.23;;
23702;SDS011;12030;50.376;8.762;2023-03-01T00:30:47;11.10;;;7.50;;
23702;SDS011;12030;50.376;8.762;2023-03-01T00:33:12;11.37;;;7.60;;
23702;SDS011;12030;50.376;8.762;2023-03-01T00:35:38;14.23;;;7.97;;
23702;SDS011;12030;50.376;8.762;2023-03-01T00:38:04;12.33;;;8.67;;
23702;SDS011;12030;50.376;8.762;2023-03-01T00:40:31;10.60;;;8.00;;
23702;SDS011;12030;50.376;8.762;2023-03-01T00:42:59;11.37;;;7.87;;
23702;SDS011;12030;50.376;8.762;2023-03-01T00:45:26;11.47;;;8.50;;
23702;SDS011;12030;50.376;8.762;2023-03-01T00:47:52;13.00;;;8.33;;
23702;SDS011;12030;50.376;8.762;2023-03-01T00:50:18;10.87;;;7.13;;
23702;SDS011;12030;50.376;8.762;2023-03-01T00:52:44;9.30;;;7.87;;
23702;SDS011;12030;50.376;8.762;2023-03-01T00:55:10;11.00;;;7.80;;
23702;SDS011;12030;50.376;8.762;2023-03-01T00:57:36;10.73;;;8.20;;
23702;SDS011;12030;50.376;8.762;2023-03-01T01:00:03;9.83;;;8.20;;
23702;SDS011;12030;50.376;8.762;2023-03-01T01:02:31;10.87;;;7.90;;
23702;SDS011;12030;50.376;8.762;2023-03-01T01:04:57;11.17;;;7.93;;
23702;SDS011;12030;50.376;8.762;2023-03-01T01:07:23;13.87;;;8.40;;
23702;SDS011;12030;50.376;8.762;2023-03-01T01:09:48;12.47;;;9.00;;
23702;SDS011;12030;50.376;8.762;2023-03-01T01:12:14;11.47;;;8.50;;
23702;SDS011;12030;50.376;8.762;2023-03-01T01:14:40;12.23;;;9.30;;
23702;SDS011;12030;50.376;8.762;2023-03-01T01:17:05;12.53;;;8.83;;
23702;SDS011;12030;50.376;8.762;2023-03-01T01:19:31;11.37;;;8.17;;
23702;SDS011;12030;50.376;8.762;2023-03-01T01:21:56;12.53;;;8.67;;
23702;SDS011;12030;50.376;8.762;2023-03-01T01:24:22;12.00;;;8.53;;
23702;SDS011;12030;50.376;8.762;2023-03-01T01:26:47;10.00;;;7.07;;
23702;SDS011;12030;50.376;8.762;2023-03-01T01:29:13;11.53;;;8.53;;
23702;SDS011;12030;50.376;8.762;2023-03-01T01:31:40;11.23;;;8.60;;
23702;SDS011;12030;50.376;8.762;2023-03-01T01:34:07;12.30;;;8.27;;
23702;SDS011;12030;50.376;8.762;2023-03-01T01:36:38;11.70;;;8.53;;
23702;SDS011;12030;50.376;8.762;2023-03-01T01:39:04;12.73;;;9.33;;
23702;SDS011;12030;50.376;8.762;2023-03-01T01:41:29;14.20;;;10.00;;
23702;SDS011;12030;50.376;8.762;2023-03-01T01:44:14;15.87;;;9.27;;
23702;SDS011;12030;50.376;8.762;2023-03-01T01:52:19;12.77;;;9.43;;
23702;SDS011;12030;50.376;8.762;2023-03-01T01:54:49;16.80;;;9.40;;
23702;SDS011;12030;50.376;8.762;2023-03-01T01:57:22;11.63;;;8.70;;
23702;SDS011;12030;50.376;8.762;2023-03-01T01:59:52;13.17;;;9.53;;
23702;SDS011;12030;50.376;8.762;2023-03-01T02:02:23;12.07;;;8.67;;
23702;SDS011;12030;50.376;8.762;2023-03-01T02:04:49;16.33;;;9.20;;
23702;SDS011;12030;50.376;8.762;2023-03-01T02:07:22;12.07;;;9.67;;
23702;SDS011;12030;50.376;8.762;2023-03-01T02:09:49;12.47;;;8.87;;
23702;SDS011;12030;50.376;8.762;2023-03-01T02:12:18;12.50;;;9.50;;
23702;SDS011;12030;50.376;8.762;2023-03-01T02:14:45;12.67;;;9.60;;
23702;SDS011;12030;50.376;8.762;2023-03-01T02:17:11;11.23;;;9.10;;
23702;SDS011;12030;50.376;8.762;2023-03-01T02:19:58;16.83;;;10.23;;
23702;SDS011;12030;50.376;8.762;2023-03-01T02:22:35;14.50;;;8.77;;
23702;SDS011;12030;50.376;8.762;2023-03-01T02:28:45;16.57;;;9.87;;
23702;SDS011;12030;50.376;8.762;2023-03-01T02:30:40;12.93;;;10.13;;
23702;SDS011;12030;50.376;8.762;2023-03-01T02:33:33;13.47;;;10.03;;
23702;SDS011;12030;50.376;8.762;2023-03-01T02:36:02;14.03;;;10.77;;
23702;SDS011;12030;50.376;8.762;2023-03-01T02:38:31;14.77;;;9.83;;
23702;SDS011;12030;50.376;8.762;2023-03-01T02:40:57;13.27;;;10.37;;
23702;SDS011;12030;50.376;8.762;2023-03-01T02:43:25;11.77;;;9.67;;
23702;SDS011;12030;50.376;8.762;2023-03-01T02:45:57;13.40;;;9.90;;
23702;SDS011;12030;50.376;8.762;2023-03-01T02:48:39;14.23;;;10.63;;
23702;SDS011;12030;50.376;8.762;2023-03-01T02:54:10;13.20;;;10.33;;
23702;SDS011;12030;50.376;8.762;2023-03-01T02:56:43;14.90;;;10.63;;
23702;SDS011;12030;50.376;8.762;2023-03-01T02:59:09;15.17;;;10.53;;
23702;SDS011;12030;50.376;8.762;2023-03-01T03:01:36;15.03;;;10.97;;
23702;SDS011;12030;50.376;8.762;2023-03-01T03:04:05;16.40;;;10.50;;
23702;SDS011;12030;50.376;8.762;2023-03-01T03:06:32;15.27;;;10.47;;
23702;SDS011;12030;50.376;8.762;2023-03-01T03:08:59;13.10;;;9.87;;
23702;SDS011;12030;50.376;8.762;2023-03-01T03:11:25;12.97;;;9.50;;
23702;SDS011;12030;50.376;8.762;2023-03-01T03:13:50;13.83;;;10.43;;
23702;SDS011;12030;50.376;8.762;2023-03-01T03:16:17;13.97;;;10.97;;
23702;SDS011;12030;50.376;8.762;2023-03-01T03:18:43;18.13;;;10.47;;
23702;SDS011;12030;50.376;8.762;2023-03-01T03:21:08;14.10;;;9.83;;
23702;SDS011;12030;50.376;8.762;2023-03-01T03:23:36;15.93;;;10.20;;
23702;SDS011;12030;50.376;8.762;2023-03-01T03:26:02;13.17;;;10.60;;
23702;SDS011;12030;50.376;8.762;2023-03-01T03:28:29;15.50;;;10.93;;
23702;SDS011;12030;50.376;8.762;2023-03-01T03:30:58;14.87;;;10.10;;
23702;SDS011;12030;50.376;8.762;2023-03-01T03:33:28;14.60;;;9.73;;
23702;SDS011;12030;50.376;8.762;2023-03-01T03:35:54;15.40;;;10.20;;
23702;SDS011;12030;50.376;8.762;2023-03-01T03:38:20;15.27;;;10.63;;
23702;SDS011;12030;50.376;8.762;2023-03-01T03:40:47;14.83;;;10.83;;
23702;SDS011;12030;50.376;8.762;2023-03-01T03:43:18;14.17;;;9.93;;
23702;SDS011;12030;50.376;8.762;2023-03-01T03:45:46;16.20;;;11.30;;
23702;SDS011;12030;50.376;8.762;2023-03-01T03:48:13;16.93;;;10.17;;
23702;SDS011;12030;50.376;8.762;2023-03-01T03:50:39;13.70;;;10.00;;
23702;SDS011;12030;50.376;8.762;2023-03-01T03:53:07;13.83;;;10.27;;
23702;SDS011;12030;50.376;8.762;2023-03-01T03:55:34;13.53;;;10.50;;
23702;SDS011;12030;50.376;8.762;2023-03-01T03:58:03;14.00;;;10.43;;
23702;SDS011;12030;50.376;8.762;2023-03-01T04:00:32;15.73;;;11.20;;
23702;SDS011;12030;50.376;8.762;2023-03-01T04:03:02;14.23;;;11.43;;
23702;SDS011;12030;50.376;8.762;2023-03-01T04:05:28;17.60;;;11.13;;
23702;SDS011;12030;50.376;8.762;2023-03-01T04:07:54;16.20;;;10.40;;
23702;SDS011;12030;50.376;8.762;2023-03-01T04:10:42;18.00;;;11.77;;
23702;SDS011;12030;50.376;8.762;2023-03-01T04:13:10;16.97;;;11.10;;
23702;SDS011;12030;50.376;8.762;2023-03-01T04:15:37;14.73;;;10.70;;
23702;SDS011;12030;50.376;8.762;2023-03-01T04:18:04;14.80;;;10.37;;
23702;SDS011;12030;50.376;8.762;2023-03-01T04:20:31;16.03;;;11.50;;
23702;SDS011;12030;50.376;8.762;2023-03-01T04:23:13;17.77;;;11.53;;
23702;SDS011;12030;50.376;8.762;2023-03-01T04:25:47;18.73;;;11.43;;
23702;SDS011;12030;50.376;8.762;2023-03-01T04:28:18;19.23;;;11.03;;
23702;SDS011;12030;50.376;8.762;2023-03-01T04:30:52;17.47;;;10.87;;
23702;SDS011;12030;50.376;8.762;2023-03-01T04:33:18;16.53;;;11.37;;
23702;SDS011;12030;50.376;8.762;2023-03-01T04:35:44;13.83;;;10.20;;
23702;SDS011;12030;50.376;8.762;2023-03-01T04:38:10;15.77;;;9.90;;
23702;SDS011;12030;50.376;8.762;2023-03-01T04:40:36;18.43;;;9.90;;
23702;SDS011;12030;50.376;8.762;2023-03-01T04:43:02;15.40;;;10.47;;
23702;SDS011;12030;50.376;8.762;2023-03-01T04:45:28;18.77;;;10.30;;
23702;SDS011;12030;50.376;8.762;2023-03-01T04:47:54;16.57;;;10.57;;
23702;SDS011;12030;50.376;8.762;2023-03-01T04:50:23;16.10;;;10.90;;
23702;SDS011;12030;50.376;8.762;2023-03-01T04:52:50;12.97;;;10.33;;
23702;SDS011;12030;50.376;8.762;2023-03-01T04:55:16;15.37;;;10.13;;
23702;SDS011;12030;50.376;8.762;2023-03-01T04:57:42;16.13;;;10.83;;
23702;SDS011;12030;50.376;8.762;2023-03-01T05:00:09;14.53;;;10.63;;
23702;SDS011;12030;50.376;8.762;2023-03-01T05:07:52;12.67;;;9.70;;
23702;SDS011;12030;50.376;8.762;2023-03-01T05:10:18;17.73;;;11.40;;
23702;SDS011;12030;50.376;8.762;2023-03-01T05:12:44;15.40;;;11.00;;
23702;SDS011;12030;50.376;8.762;2023-03-01T05:15:11;15.63;;;11.03;;
23702;SDS011;12030;50.376;8.762;2023-03-01T05:17:37;18.60;;;10.90;;
23702;SDS011;12030;50.376;8.762;2023-03-01T05:20:03;18.83;;;11.30;;
23702;SDS011;12030;50.376;8.762;2023-03-01T05:22:33;14.83;;;11.73;;
23702;SDS011;12030;50.376;8.762;2023-03-01T05:24:59;15.73;;;10.60;;
23702;SDS011;12030;50.376;8.762;2023-03-01T05:27:25;15.20;;;10.67;;
23702;SDS011;12030;50.376;8.762;2023-03-01T05:29:50;15.90;;;11.07;;
23702;SDS011;12030;50.376;8.762;2023-03-01T05:32:16;17.87;;;10.63;;
23702;SDS011;12030;50.376;8.762;2023-03-01T05:34:41;16.43;;;11.37;;
23702;SDS011;12030;50.376;8.762;2023-03-01T05:37:07;13.37;;;11.00;;
23702;SDS011;12030;50.376;8.762;2023-03-01T05:39:33;19.07;;;11.20;;
23702;SDS011;12030;50.376;8.762;2023-03-01T05:42:00;14.13;;;10.30;;
23702;SDS011;12030;50.376;8.762;2023-03-01T05:44:26;15.40;;;11.07;;
23702;SDS011;12030;50.376;8.762;2023-03-01T05:46:53;16.03;;;11.23;;
23702;SDS011;12030;50.376;8.762;2023-03-01T05:49:19;15.33;;;10.87;;
23702;SDS011;12030;50.376;8.762;2023-03-01T05:51:48;17.53;;;10.50;;
23702;SDS011;12030;50.376;8.762;2023-03-01T05:54:16;17.73;;;10.17;;
23702;SDS011;12030;50.376;8.762;2023-03-01T05:56:43;14.03;;;10.77;;
23702;SDS011;12030;50.376;8.762;2023-03-01T05:59:09;15.83;;;10.87;;
23702;SDS011;12030;50.376;8.762;2023-03-01T06:01:35;15.17;;;10.80;;
23702;SDS011;12030;50.376;8.762;2023-03-01T06:04:02;15.03;;;11.00;;
23702;SDS011;12030;50.376;8.762;2023-03-01T06:06:28;14.70;;;10.60;;
23702;SDS011;12030;50.376;8.762;2023-03-01T06:08:54;13.97;;;10.67;;
23702;SDS011;12030;50.376;8.762;2023-03-01T06:11:20;13.37;;;11.07;;
23702;SDS011;12030;50.376;8.762;2023-03-01T06:13:46;15.57;;;10.40;;
23702;SDS011;12030;50.376;8.762;2023-03-01T06:16:12;14.93;;;10.90;;
23702;SDS011;12030;50.376;8.762;2023-03-01T06:18:39;17.90;;;11.70;;
23702;SDS011;12030;50.376;8.762;2023-03-01T06:21:05;14.17;;;10.60;;
23702;SDS011;12030;50.376;8.762;2023-03-01T06:23:32;14.87;;;11.50;;
23702;SDS011;12030;50.376;8.762;2023-03-01T06:25:58;15.93;;;11.13;;
23702;SDS011;12030;50.376;8.762;2023-03-01T06:28:25;18.63;;;12.03;;
23702;SDS011;12030;50.376;8.762;2023-03-01T06:30:50;13.43;;;10.07;;
23702;SDS011;12030;50.376;8.762;2023-03-01T06:33:16;18.67;;;11.10;;
23702;SDS011;12030;50.376;8.762;2023-03-01T06:35:44;17.93;;;10.63;;
23702;SDS011;12030;50.376;8.762;2023-03-01T06:38:11;14.47;;;10.70;;
23702;SDS011;12030;50.376;8.762;2023-03-01T06:40:39;14.70;;;11.17;;
23702;SDS011;12030;50.376;8.762;2023-03-01T06:43:05;17.10;;;11.83;;
23702;SDS011;12030;50.376;8.762;2023-03-01T06:45:32;16.57;;;11.13;;
23702;SDS011;12030;50.376;8.762;2023-03-01T06:48:04;15.13;;;11.33;;
23702;SDS011;12030;50.376;8.762;2023-03-01T06:50:31;17.43;;;12.23;;
23702;SDS011;12030;50.376;8.762;2023-03-01T06:52:57;15.60;;;10.83;;
23702;SDS011;12030;50.376;8.762;2023-03-01T06:55:22;15.20;;;11.60;;
23702;SDS011;12030;50.376;8.762;2023-03-01T06:57:48;15.90;;;11.03;;
23702;SDS011;12030;50.376;8.762;2023-03-01T07:00:14;16.70;;;11.00;;
23702;SDS011;12030;50.376;8.762;2023-03-01T07:02:40;12.80;;;11.07;;
23702;SDS011;12030;50.376;8.762;2023-03-01T07:05:06;16.93;;;11.93;;
23702;SDS011;12030;50.376;8.762;2023-03-01T07:07:32;14.47;;;11.47;;
23702;SDS011;12030;50.376;8.762;2023-03-01T07:09:57;16.00;;;11.57;;
23702;SDS011;12030;50.376;8.762;2023-03-01T07:12:23;15.13;;;10.83;;
23702;SDS011;12030;50.376;8.762;2023-03-01T07:14:48;19.63;;;12.10;;
23702;SDS011;12030;50.376;8.762;2023-03-01T07:17:14;19.97;;;12.37;;
23702;SDS011;12030;50.376;8.762;2023-03-01T07:19:39;20.23;;;11.93;;
23702;SDS011;12030;50.376;8.762;2023-03-01T07:22:05;18.37;;;12.07;;
23702;SDS011;12030;50.376;8.762;2023-03-01T07:24:32;18.47;;;12.20;;
23702;SDS011;12030;50.376;8.762;2023-03-01T07:26:58;15.13;;;10.47;;
23702;SDS011;12030;50.376;8.762;2023-03-01T07:29:24;17.17;;;11.97;;
23702;SDS011;12030;50.376;8.762;2023-03-01T07:31:49;12.90;;;10.93;;
23702;SDS011;12030;50.376;8.762;2023-03-01T07:34:15;16.97;;;11.93;;
23702;SDS011;12030;50.376;8.762;2023-03-01T07:36:40;17.07;;;12.47;;
23702;SDS011;12030;50.376;8.762;2023-03-01T07:39:08;15.37;;;11.33;;
23702;SDS011;12030;50.376;8.762;2023-03-01T07:41:34;16.77;;;11.23;;
23702;SDS011;12030;50.376;8.762;2023-03-01T07:44:00;15.20;;;11.30;;
23702;SDS011;12030;50.376;8.762;2023-03-01T07:46:26;15.17;;;10.87;;
23702;SDS011;12030;50.376;8.762;2023-03-01T07:48:51;17.00;;;12.40;;
23702;SDS011;12030;50.376;8.762;2023-03-01T07:51:17;15.20;;;10.87;;
23702;SDS011;12030;50.376;8.762;2023-03-01T07:53:44;17.43;;;11.73;;
23702;SDS011;12030;50.376;8.762;2023-03-01T07:56:12;17.20;;;12.27;;
23702;SDS011;12030;50.376;8.762;2023-03-01T07:58:40;15.23;;;11.53;;
23702;SDS011;12030;50.376;8.762;2023-03-01T08:01:08;16.13;;;11.27;;
23702;SDS011;12030;50.376;8.762;2023-03-01T08:03:35;18.40;;;11.90;;
23702;SDS011;12030;50.376;8.762;2023-03-01T08:06:02;16.07;;;10.93;;
23702;SDS011;12030;50.376;8.762;2023-03-01T08:08:29;16.70;;;11.70;;
23702;SDS011;12030;50.376;8.762;2023-03-01T08:10:58;17.60;;;11.63;;
23702;SDS011;12030;50.376;8.762;2023-03-01T08:13:24;16.70;;;11.07;;
23702;SDS011;12030;50.376;8.762;2023-03-01T08:15:50;15.77;;;12.00;;
23702;SDS011;12030;50.376;8.762;2023-03-01T08:18:17;15.43;;;11.47;;
23702;SDS011;12030;50.376;8.762;2023-03-01T08:20:43;15.90;;;11.50;;
23702;SDS011;12030;50.376;8.762;2023-03-01T08:23:09;16.00;;;10.80;;
23702;SDS011;12030;50.376;8.762;2023-03-01T08:25:35;15.10;;;11.57;;
23702;SDS011;12030;50.376;8.762;2023-03-01T08:28:00;16.03;;;11.33;;
23702;SDS011;12030;50.376;8.762;2023-03-01T08:30:26;21.27;;;10.83;;
23702;SDS011;12030;50.376;8.762;2023-03-01T08:32:52;15.43;;;10.90;;
23702;SDS011;12030;50.376;8.762;2023-03-01T08:35:17;17.20;;;11.30;;
23702;SDS011;12030;50.376;8.762;2023-03-01T08:37:44;16.60;;;10.83;;
23702;SDS011;12030;50.376;8.762;2023-03-01T08:40:10;16.13;;;11.73;;
23702;SDS011;12030;50.376;8.762;2023-03-01T08:42:36;15.40;;;11.43;;
23702;SDS011;12030;50.376;8.762;2023-03-01T08:45:04;14.20;;;10.40;;
23702;SDS011;12030;50.376;8.762;2023-03-01T08:47:31;14.20;;;10.93;;
23702;SDS011;12030;50.376;8.762;2023-03-01T08:49:58;14.27;;;11.40;;
23702;SDS011;12030;50.376;8.762;2023-03-01T08:52:24;16.97;;;11.13;;
23702;SDS011;12030;50.376;8.762;2023-03-01T08:54:50;16.10;;;11.33;;
23702;SDS011;12030;50.376;8.762;2023-03-01T08:57:15;13.77;;;9.80;;
23702;SDS011;12030;50.376;8.762;2023-03-01T08:59:41;17.07;;;10.93;;
23702;SDS011;12030;50.376;8.762;2023-03-01T09:02:10;16.60;;;10.50;;
23702;SDS011;12030;50.376;8.762;2023-03-01T09:04:38;15.20;;;11.00;;
23702;SDS011;12030;50.376;8.762;2023-03-01T09:07:04;14.37;;;9.70;;
23702;SDS011;12030;50.376;8.762;2023-03-01T09:09:30;14.20;;;9.80;;
23702;SDS011;12030;50.376;8.762;2023-03-01T09:11:56;13.03;;;10.00;;
23702;SDS011;12030;50.376;8.762;2023-03-01T09:14:22;16.93;;;11.03;;
23702;SDS011;12030;50.376;8.762;2023-03-01T09:16:47;13.57;;;10.03;;
23702;SDS011;12030;50.376;8.762;2023-03-01T09:19:13;15.90;;;9.93;;
23702;SDS011;12030;50.376;8.762;2023-03-01T09:21:39;14.37;;;10.30;;
23702;SDS011;12030;50.376;8.762;2023-03-01T09:24:04;12.43;;;10.47;;
23702;SDS011;12030;50.376;8.762;2023-03-01T09:26:31;15.73;;;11.07;;
23702;SDS011;12030;50.376;8.762;2023-03-01T09:28:56;14.07;;;10.30;;
23702;SDS011;12030;50.376;8.762;2023-03-01T09:31:23;15.30;;;10.80;;
23702;SDS011;12030;50.376;8.762;2023-03-01T09:33:50;13.80;;;9.47;;
23702;SDS011;12030;50.376;8.762;2023-03-01T09:36:18;17.43;;;10.13;;
23702;SDS011;12030;50.376;8.762;2023-03-01T09:38:45;15.07;;;10.37;;
23702;SDS011;12030;50.376;8.762;2023-03-01T09:43:47;14.53;;;10.20;;
23702;SDS011;12030;50.376;8.762;2023-03-01T09:46:19;11.43;;;9.50;;
23702;SDS011;12030;50.376;8.762;2023-03-01T09:49:04;11.73;;;9.23;;
23702;SDS011;12030;50.376;8.762;2023-03-01T09:51:35;12.10;;;9.63;;
23702;SDS011;12030;50.376;8.762;2023-03-01T09:54:02;11.53;;;8.87;;
23702;SDS011;12030;50.376;8.762;2023-03-01T09:56:46;14.20;;;10.27;;
23702;SDS011;12030;50.376;8.762;2023-03-01T09:59:38;12.63;;;9.87;;
23702;SDS011;12030;50.376;8.762;2023-03-01T10:04:56;13.83;;;9.97;;
23702;SDS011;12030;50.376;8.762;2023-03-01T10:07:45;12.10;;;10.17;;
23702;SDS011;12030;50.376;8.762;2023-03-01T10:10:28;11.70;;;8.90;;
23702;SDS011;12030;50.376;8.762;2023-03-01T10:12:58;12.23;;;9.63;;
23702;SDS011;12030;50.376;8.762;2023-03-01T10:15:32;13.37;;;9.80;;
23702;SDS011;12030;50.376;8.762;2023-03-01T10:18:16;14.23;;;9.93;;
23702;SDS011;12030;50.376;8.762;2023-03-01T10:20:58;11.77;;;9.37;;
23702;SDS011;12030;50.376;8.762;2023-03-01T10:23:26;11.93;;;9.37;;
23702;SDS011;12030;50.376;8.762;2023-03-01T10:26:04;10.90;;;9.00;;
23702;SDS011;12030;50.376;8.762;2023-03-01T10:28:37;14.10;;;9.30;;
23702;SDS011;12030;50.376;8.762;2023-03-01T10:31:22;12.27;;;8.80;;
23702;SDS011;12030;50.376;8.762;2023-03-01T10:33:54;13.07;;;9.20;;
23702;SDS011;12030;50.376;8.762;2023-03-01T10:36:22;12.63;;;9.83;;
23702;SDS011;12030;50.376;8.762;2023-03-01T10:38:55;11.67;;;8.90;;
23702;SDS011;12030;50.376;8.762;2023-03-01T10:41:23;11.93;;;9.50;;
23702;SDS011;12030;50.376;8.762;2023-03-01T10:43:54;10.80;;;8.07;;
23702;SDS011;12030;50.376;8.762;2023-03-01T10:46:22;11.40;;;9.23;;
23702;SDS011;12030;50.376;8.762;2023-03-01T10:49:04;11.13;;;9.30;;
23702;SDS011;12030;50.376;8.762;2023-03-01T10:51:39;14.00;;;9.57;;
23702;SDS011;12030;50.376;8.762;2023-03-01T10:54:13;11.23;;;8.87;;
23702;SDS011;12030;50.376;8.762;2023-03-01T10:56:50;10.73;;;8.63;;
23702;SDS011;12030;50.376;8.762;2023-03-01T10:59:35;11.97;;;9.00;;
23702;SDS011;12030;50.376;8.762;2023-03-01T11:02:03;12.67;;;9.67;;
23702;SDS011;12030;50.376;8.762;2023-03-01T11:04:46;11.90;;;8.70;;
23702;SDS011;12030;50.376;8.762;2023-03-01T11:07:25;11.13;;;9.23;;
23702;SDS011;12030;50.376;8.762;2023-03-01T11:09:50;10.60;;;8.77;;
23702;SDS011;12030;50.376;8.762;2023-03-01T11:12:16;10.63;;;9.20;;
23702;SDS011;12030;50.376;8.762;2023-03-01T11:14:46;11.07;;;8.70;;
23702;SDS011;12030;50.376;8.762;2023-03-01T11:20:01;9.87;;;8.60;;
23702;SDS011;12030;50.376;8.762;2023-03-01T11:22:42;11.13;;;9.00;;
23702;SDS011;12030;50.376;8.762;2023-03-01T11:25:37;9.80;;;8.10;;
23702;SDS011;12030;50.376;8.762;2023-03-01T11:28:07;10.40;;;8.70;;
23702;SDS011;12030;50.376;8.762;2023-03-01T11:30:40;9.57;;;7.77;;
23702;SDS011;12030;50.376;8.762;2023-03-01T11:38:28;10.37;;;7.87;;
23702;SDS011;12030;50.376;8.762;2023-03-01T11:41:11;9.20;;;8.20;;
23702;SDS011;12030;50.376;8.762;2023-03-01T11:43:49;10.93;;;8.07;;
23702;SDS011;12030;50.376;8.762;2023-03-01T12:00:02;11.17;;;8.70;;
23702;SDS011;12030;50.376;8.762;2023-03-01T12:02:47;9.33;;;8.00;;
23702;SDS011;12030;50.376;8.762;2023-03-01T12:05:20;9.40;;;7.67;;
23702;SDS011;12030;50.376;8.762;2023-03-01T12:07:52;8.80;;;7.90;;
23702;SDS011;12030;50.376;8.762;2023-03-01T12:10:38;10.37;;;7.60;;
23702;SDS011;12030;50.376;8.762;2023-03-01T12:19:09;10.37;;;8.00;;
23702;SDS011;12030;50.376;8.762;2023-03-01T12:25:17;10.27;;;7.67;;
23702;SDS011;12030;50.376;8.762;2023-03-01T12:27:45;9.53;;;7.07;;
23702;SDS011;12030;50.376;8.762;2023-03-01T12:33:12;10.17;;;7.33;;
23702;SDS011;12030;50.376;8.762;2023-03-01T12:38:41;8.37;;;7.50;;
23702;SDS011;12030;50.376;8.762;2023-03-01T12:49:21;8.50;;;6.90;;
23702;SDS011;12030;50.376;8.762;2023-03-01T12:52:38;9.10;;;7.07;;
23702;SDS011;12030;50.376;8.762;2023-03-01T12:54:55;11.00;;;6.77;;
23702;SDS011;12030;50.376;8.762;2023-03-01T12:57:40;10.60;;;7.20;;
23702;SDS011;12030;50.376;8.762;2023-03-01T13:02:58;9.70;;;7.73;;
23702;SDS011;12030;50.376;8.762;2023-03-01T13:08:29;8.00;;;6.63;;
23702;SDS011;12030;50.376;8.762;2023-03-01T13:11:04;9.23;;;6.90;;
23702;SDS011;12030;50.376;8.762;2023-03-01T13:13:32;8.53;;;7.10;;
23702;SDS011;12030;50.376;8.762;2023-03-01T13:15:57;8.57;;;7.37;;
23702;SDS011;12030;50.376;8.762;2023-03-01T13:19:14;9.50;;;7.47;;
23702;SDS011;12030;50.376;8.762;2023-03-01T13:21:48;9.33;;;7.90;;
23702;SDS011;12030;50.376;8.762;2023-03-01T13:29:51;9.17;;;7.63;;
23702;SDS011;12030;50.376;8.762;2023-03-01T13:32:39;8.00;;;6.83;;
23702;SDS011;12030;50.376;8.762;2023-03-01T13:37:39;7.50;;;6.67;;
23702;SDS011;12030;50.376;8.762;2023-03-01T13:42:55;9.00;;;6.93;;
23702;SDS011;12030;50.376;8.762;2023-03-01T13:47:52;8.73;;;7.00;;
23702;SDS011;12030;50.376;8.762;2023-03-01T13:50:24;7.67;;;6.33;;
23702;SDS011;12030;50.376;8.762;2023-03-01T13:52:53;7.83;;;7.03;;
23702;SDS011;12030;50.376;8.762;2023-03-01T13:55:25;8.80;;;7.00;;
23702;SDS011;12030;50.376;8.762;2023-03-01T13:58:13;7.37;;;6.50;;
23702;SDS011;12030;50.376;8.762;2023-03-01T14:00:39;9.23;;;6.70;;
23702;SDS011;12030;50.376;8.762;2023-03-01T14:03:13;9.43;;;7.37;;
23702;SDS011;12030;50.376;8.762;2023-03-01T14:05:40;8.37;;;7.40;;
23702;SDS011;12030;50.376;8.762;2023-03-01T14:08:20;11.80;;;8.80;;
23702;SDS011;12030;50.376;8.762;2023-03-01T14:14:09;10.20;;;7.50;;
23702;SDS011;12030;50.376;8.762;2023-03-01T14:19:43;9.73;;;7.77;;
23702;SDS011;12030;50.376;8.762;2023-03-01T14:24:44;8.03;;;6.43;;
23702;SDS011;12030;50.376;8.762;2023-03-01T14:27:14;7.93;;;6.50;;
23702;SDS011;12030;50.376;8.762;2023-03-01T14:29:41;8.43;;;7.33;;
23702;SDS011;12030;50.376;8.762;2023-03-01T14:32:08;8.53;;;6.63;;
23702;SDS011;12030;50.376;8.762;2023-03-01T14:34:45;7.73;;;6.67;;
23702;SDS011;12030;50.376;8.762;2023-03-01T14:37:19;8.03;;;6.73;;
23702;SDS011;12030;50.376;8.762;2023-03-01T14:39:53;8.27;;;6.50;;
23702;SDS011;12030;50.376;8.762;2023-03-01T14:42:19;10.93;;;6.17;;
23702;SDS011;12030;50.376;8.762;2023-03-01T14:44:49;7.37;;;6.13;;
23702;SDS011;12030;50.376;8.762;2023-03-01T14:47:26;6.93;;;6.20;;
23702;SDS011;12030;50.376;8.762;2023-03-01T14:49:59;6.70;;;6.10;;
23702;SDS011;12030;50.376;8.762;2023-03-01T14:52:37;7.60;;;6.20;;
23702;SDS011;12030;50.376;8.762;2023-03-01T14:55:16;6.93;;;6.10;;
23702;SDS011;12030;50.376;8.762;2023-03-01T14:57:44;8.20;;;6.23;;
23702;SDS011;12030;50.376;8.762;2023-03-01T15:00:16;6.90;;;6.20;;
23702;SDS011;12030;50.376;8.762;2023-03-01T15:02:46;9.10;;;6.93;;
23702;SDS011;12030;50.376;8.762;2023-03-01T15:05:14;7.57;;;6.73;;
23702;SDS011;12030;50.376;8.762;2023-03-01T15:07:40;9.30;;;6.73;;
23702;SDS011;12030;50.376;8.762;2023-03-01T15:10:23;8.57;;;6.20;;
23702;SDS011;12030;50.376;8.762;2023-03-01T15:12:50;7.97;;;5.97;;
23702;SDS011;12030;50.376;8.762;2023-03-01T15:15:34;7.73;;;6.23;;
23702;SDS011;12030;50.376;8.762;2023-03-01T15:18:04;7.63;;;6.40;;
23702;SDS011;12030;50.376;8.762;2023-03-01T15:20:38;7.70;;;6.20;;
23702;SDS011;12030;50.376;8.762;2023-03-01T15:23:04;7.97;;;6.73;;
23702;SDS011;12030;50.376;8.762;2023-03-01T15:25:30;8.47;;;6.87;;
23702;SDS011;12030;50.376;8.762;2023-03-01T15:27:57;8.37;;;7.03;;
23702;SDS011;12030;50.376;8.762;2023-03-01T15:30:35;10.07;;;6.50;;
23702;SDS011;12030;50.376;8.762;2023-03-01T15:35:51;8.40;;;6.40;;
23702;SDS011;12030;50.376;8.762;2023-03-01T15:41:05;8.50;;;6.83;;
23702;SDS011;12030;50.376;8.762;2023-03-01T15:43:47;9.27;;;6.77;;
23702;SDS011;12030;50.376;8.762;2023-03-01T15:46:30;7.43;;;6.27;;
23702;SDS011;12030;50.376;8.762;2023-03-01T15:48:58;8.10;;;6.27;;
23702;SDS011;12030;50.376;8.762;2023-03-01T15:51:49;7.83;;;6.27;;
23702;SDS011;12030;50.376;8.762;2023-03-01T15:54:18;8.20;;;6.23;;
23702;SDS011;12030;50.376;8.762;2023-03-01T15:56:47;7.23;;;6.30;;
23702;SDS011;12030;50.376;8.762;2023-03-01T15:59:13;7.40;;;6.27;;
23702;SDS011;12030;50.376;8.762;2023-03-01T16:01:39;7.63;;;6.53;;
23702;SDS011;12030;50.376;8.762;2023-03-01T16:04:05;8.40;;;6.33;;
23702;SDS011;12030;50.376;8.762;2023-03-01T16:06:31;9.40;;;6.70;;
23702;SDS011;12030;50.376;8.762;2023-03-01T16:08:56;10.37;;;6.87;;
23702;SDS011;12030;50.376;8.762;2023-03-01T16:11:22;7.70;;;6.67;;
23702;SDS011;12030;50.376;8.762;2023-03-01T16:13:47;9.13;;;6.90;;
23702;SDS011;12030;50.376;8.762;2023-03-01T16:16:14;7.30;;;5.97;;
23702;SDS011;12030;50.376;8.762;2023-03-01T16:18:41;8.57;;;6.53;;
23702;SDS011;12030;50.376;8.762;2023-03-01T16:21:11;10.40;;;6.67;;
23702;SDS011;12030;50.376;8.762;2023-03-01T16:23:38;9.47;;;6.20;;
23702;SDS011;12030;50.376;8.762;2023-03-01T16:26:03;6.97;;;5.87;;